Time;durP1;ratioP1;P1;durP2;ratioP2;P2;SDS_P1;SDS_P2;PMS_P1;PMS_P2;Temp;Humidity;BMP_temperature;BMP_pressure;BME280_temperature;BME280_humidity;BME280_pressure;Samples;Min_cycle;Max_cycle;Signal;HPM_P1;HPM_P2
2024/04/12 00:01:00;;;;;;;12.13;9.73;;;;;;;;;;5448251;26;20007;-82
2024/04/12 00:03:26;;;;;;;14.18;10.43;;;;;;;;;;5436948;26;20000;-81
2024/04/12 00:05:54;;;;;;;10.70;8.55;;;;;;;;;;5444097;26;19992;-82
2024/04/12 00:08:20;;;;;;;13.95;8.23;;;;;;;;;;5407024;26;20011;-82
2024/04/12 00:10:46;;;;;;;19.85;10.90;;;;;;;;;;5474680;26;20003;-82
2024/04/12 00:13:12;;;;;;;13.43;9.57;;;;;;;;;;5435923;26;20072;-82
2024/04/12 00:15:38;;;;;;;13.73;10.40;;;;;;;;;;5406297;26;20047;-82
2024/04/12 00:18:05;;;;;;;15.13;10.77;;;;;;;;;;5441513;26;20011;-82
2024/04/12 00:20:31;;;;;;;13.82;10.55;;;;;;;;;;5471798;26;20015;-82
2024/04/12 00:22:57;;;;;;;14.25;10.57;;;;;;;;;;5473259;26;20000;-82
2024/04/12 00:25:23;;;;;;;14.98;11.20;;;;;;;;;;5406223;26;20011;-82
2024/04/12 00:27:49;;;;;;;14.27;10.57;;;;;;;;;;5442612;26;20010;-81
2024/04/12 00:30:37;;;;;;;15.27;9.95;;;;;;;;;;5470330;26;20494;-83
2024/04/12 00:33:09;;;;;;;15.48;11.57;;;;;;;;;;5401211;26;20017;-82
2024/04/12 00:35:37;;;;;;;12.75;9.82;;;;;;;;;;5407158;26;20022;-82
2024/04/12 00:38:09;;;;;;;14.55;11.55;;;;;;;;;;5426736;26;20460;-82
2024/04/12 00:40:35;;;;;;;15.32;11.50;;;;;;;;;;5399998;26;19995;-82
2024/04/12 00:43:13;;;;;;;11.90;9.35;;;;;;;;;;5474088;26;20027;-82
2024/04/12 00:45:46;;;;;;;15.70;11.48;;;;;;;;;;5405429;26;20014;-82
2024/04/12 00:48:14;;;;;;;13.93;10.77;;;;;;;;;;5467396;26;20000;-82
2024/04/12 00:50:43;;;;;;;15.48;11.95;;;;;;;;;;5444002;26;20014;-82
2024/04/12 00:53:10;;;;;;;15.45;11.95;;;;;;;;;;5401062;26;20032;-82
2024/04/12 00:55:40;;;;;;;18.23;12.90;;;;;;;;;;5388619;26;20083;-82
2024/04/12 00:58:11;;;;;;;17.85;12.50;;;;;;;;;;5401681;26;20007;-83
2024/04/12 01:00:37;;;;;;;16.77;11.82;;;;;;;;;;5476934;21;20027;-83
2024/04/12 01:03:05;;;;;;;16.10;11.68;;;;;;;;;;5404411;26;20350;-81
2024/04/12 01:05:35;;;;;;;17.05;12.32;;;;;;;;;;5443925;26;20031;-82
2024/04/12 01:08:01;;;;;;;18.60;12.20;;;;;;;;;;5413235;26;20003;-82
2024/04/12 01:10:36;;;;;;;16.55;12.20;;;;;;;;;;5420108;26;20016;-82
2024/04/12 01:13:03;;;;;;;16.00;11.68;;;;;;;;;;5417009;26;20003;-82
2024/04/12 01:15:37;;;;;;;16.50;11.85;;;;;;;;;;5419027;26;20481;-82
2024/04/12 01:18:04;;;;;;;15.30;11.57;;;;;;;;;;5449244;26;20003;-82
2024/04/12 01:20:34;;;;;;;17.23;11.55;;;;;;;;;;5420984;26;20030;-82
2024/04/12 01:23:00;;;;;;;15.10;10.65;;;;;;;;;;5448089;26;20009;-82
2024/04/12 01:25:29;;;;;;;12.75;9.95;;;;;;;;;;5417307;26;20004;-82
2024/04/12 01:27:55;;;;;;;12.25;8.65;;;;;;;;;;5452260;26;20410;-82
2024/04/12 01:30:22;;;;;;;12.00;8.55;;;;;;;;;;5450781;26;20011;-84
2024/04/12 01:32:50;;;;;;;11.50;8.80;;;;;;;;;;5418838;26;20014;-83
2024/04/12 01:35:22;;;;;;;14.10;9.35;;;;;;;;;;5419343;26;20068;-84
2024/04/12 01:37:51;;;;;;;11.35;8.93;;;;;;;;;;5413763;26;19999;-84
2024/04/12 01:40:17;;;;;;;11.45;9.18;;;;;;;;;;5409329;26;20370;-83
2024/04/12 01:42:43;;;;;;;11.88;9.18;;;;;;;;;;5416519;26;20007;-83
2024/04/12 01:45:15;;;;;;;11.77;8.98;;;;;;;;;;5403163;26;19998;-83
2024/04/12 01:47:48;;;;;;;11.52;8.50;;;;;;;;;;5450173;26;20014;-84
2024/04/12 01:50:21;;;;;;;11.88;9.23;;;;;;;;;;5449818;26;20021;-82
2024/04/12 01:52:57;;;;;;;12.68;9.73;;;;;;;;;;5424752;26;20003;-82
2024/04/12 01:55:26;;;;;;;13.05;9.27;;;;;;;;;;5444709;26;20011;-81
2024/04/12 01:57:53;;;;;;;10.88;8.73;;;;;;;;;;5452282;26;20003;-80
2024/04/12 02:00:23;;;;;;;12.35;9.15;;;;;;;;;;5445186;26;19994;-81
2024/04/12 02:02:58;;;;;;;11.60;8.82;;;;;;;;;;5394158;26;20000;-80
2024/04/12 02:05:29;;;;;;;12.13;8.88;;;;;;;;;;5375047;26;20077;-79
2024/04/12 02:08:10;;;;;;;9.60;7.93;;;;;;;;;;5383948;26;20014;-83
2024/04/12 02:10:42;;;;;;;10.93;7.95;;;;;;;;;;5398409;26;20003;-83
2024/04/12 02:13:17;;;;;;;12.45;7.93;;;;;;;;;;5393509;26;20012;-83
2024/04/12 02:15:43;;;;;;;11.40;8.02;;;;;;;;;;5382635;26;20000;-83
2024/04/12 02:18:13;;;;;;;10.85;8.07;;;;;;;;;;5376738;26;20000;-83
2024/04/12 02:20:39;;;;;;;11.40;7.97;;;;;;;;;;5404017;26;20000;-85
2024/04/12 02:23:07;;;;;;;10.27;7.93;;;;;;;;;;5411679;26;20000;-85
2024/04/12 02:25:36;;;;;;;12.82;7.88;;;;;;;;;;5399328;26;20004;-86
2024/04/12 02:28:08;;;;;;;10.93;7.65;;;;;;;;;;5386372;26;20015;-86
2024/04/12 02:30:41;;;;;;;9.43;7.10;;;;;;;;;;5377657;26;19995;-85
2024/04/12 02:33:11;;;;;;;;;;;;;;;;;;5404357;26;20474;-85
2024/04/12 02:35:41;;;;;;;9.30;6.78;;;;;;;;;;5364345;26;20369;-85
2024/04/12 02:38:14;;;;;;;10.80;6.85;;;;;;;;;;5411417;26;20446;-85
2024/04/12 02:40:41;;;;;;;10.73;6.40;;;;;;;;;;5386175;26;20011;-85
2024/04/12 02:43:08;;;;;;;8.45;6.93;;;;;;;;;;5380374;26;20019;-85
2024/04/12 02:45:35;;;;;;;8.27;6.65;;;;;;;;;;5373470;26;20018;-85
2024/04/12 02:48:03;;;;;;;10.18;7.30;;;;;;;;;;5378672;26;20011;-86
2024/04/12 02:50:29;;;;;;;9.63;6.47;;;;;;;;;;5372448;26;19996;-85
2024/04/12 02:52:54;;;;;;;8.90;6.65;;;;;;;;;;5417122;26;20462;-85
2024/04/12 02:55:21;;;;;;;9.13;6.38;;;;;;;;;;5401653;26;20001;-85
2024/04/12 02:57:46;;;;;;;10.80;7.53;;;;;;;;;;5366123;26;20006;-86
2024/04/12 03:00:21;;;;;;;11.15;7.03;;;;;;;;;;5394295;26;19999;-86
2024/04/12 03:02:51;;;;;;;10.90;7.72;;;;;;;;;;5368051;26;20118;-86
2024/04/12 03:05:17;;;;;;;9.38;6.63;;;;;;;;;;5389315;26;20035;-85
2024/04/12 03:07:45;;;;;;;10.18;7.55;;;;;;;;;;5390970;26;20045;-85
2024/04/12 03:10:11;;;;;;;9.30;6.70;;;;;;;;;;5363297;26;22252;-84
2024/04/12 03:12:36;;;;;;;11.35;7.50;;;;;;;;;;5395568;26;20001;-84
2024/04/12 03:15:04;;;;;;;10.60;7.60;;;;;;;;;;5361002;26;20080;-84
2024/04/12 03:17:30;;;;;;;9.85;6.18;;;;;;;;;;5366310;26;20003;-84
2024/04/12 03:19:55;;;;;;;10.13;7.05;;;;;;;;;;5386114;26;20473;-83
2024/04/12 03:22:21;;;;;;;9.13;6.90;;;;;;;;;;5364966;26;20012;-86
2024/04/12 03:24:46;;;;;;;9.45;6.68;;;;;;;;;;5359865;26;19996;-85
2024/04/12 03:27:13;;;;;;;8.77;5.85;;;;;;;;;;5393605;26;20000;-84
2024/04/12 03:29:39;;;;;;;10.45;6.93;;;;;;;;;;5360777;26;19999;-86
2024/04/12 03:32:07;;;;;;;10.45;7.68;;;;;;;;;;5370865;26;20000;-86
2024/04/12 03:34:35;;;;;;;8.32;6.55;;;;;;;;;;5372430;26;20004;-86
2024/04/12 03:37:23;;;;;;;9.05;6.80;;;;;;;;;;5365852;26;20004;-86
2024/04/12 03:39:47;;;;;;;9.18;6.80;;;;;;;;;;5389272;26;20000;-86
2024/04/12 03:42:18;;;;;;;8.48;6.07;;;;;;;;;;5397571;26;19999;-85
2024/04/12 03:44:44;;;;;;;7.82;6.10;;;;;;;;;;5359589;26;20004;-86
2024/04/12 03:47:09;;;;;;;8.48;6.60;;;;;;;;;;5357916;26;20823;-86
2024/04/12 03:49:39;;;;;;;8.32;6.50;;;;;;;;;;5378982;26;20040;-83
2024/04/12 03:52:11;;;;;;;7.75;5.53;;;;;;;;;;5386679;26;22315;-83
2024/04/12 03:54:36;;;;;;;7.70;5.75;;;;;;;;;;5371219;26;20075;-83
2024/04/12 03:57:05;;;;;;;7.30;5.40;;;;;;;;;;5393775;26;20425;-83
2024/04/12 03:59:34;;;;;;;7.40;5.20;;;;;;;;;;5375565;26;20519;-82
2024/04/12 04:02:06;;;;;;;7.60;4.95;;;;;;;;;;5365474;26;20007;-83
2024/04/12 04:04:37;;;;;;;7.97;5.55;;;;;;;;;;5398055;26;20347;-82
2024/04/12 04:07:03;;;;;;;6.80;5.10;;;;;;;;;;5361798;26;20325;-82
2024/04/12 04:09:29;;;;;;;6.38;4.95;;;;;;;;;;5363020;26;20001;-83
2024/04/12 04:11:55;;;;;;;8.38;5.72;;;;;;;;;;5371271;26;20362;-82
2024/04/12 04:14:25;;;;;;;7.30;5.53;;;;;;;;;;5374462;26;20015;-82
2024/04/12 04:16:52;;;;;;;7.78;5.45;;;;;;;;;;5365110;26;20008;-82
2024/04/12 04:19:20;;;;;;;7.05;5.65;;;;;;;;;;5364041;26;20459;-83
2024/04/12 04:21:56;;;;;;;6.50;5.13;;;;;;;;;;5409655;26;20072;-83
2024/04/12 04:24:24;;;;;;;7.25;5.70;;;;;;;;;;5370072;26;20007;-83
2024/04/12 04:26:51;;;;;;;8.27;5.70;;;;;;;;;;5380774;26;20002;-83
2024/04/12 04:29:17;;;;;;;7.55;5.60;;;;;;;;;;5370448;26;20011;-81
2024/04/12 04:31:47;;;;;;;6.97;4.80;;;;;;;;;;5367142;26;20355;-83
2024/04/12 04:34:17;;;;;;;6.00;4.78;;;;;;;;;;5370959;26;20463;-83
2024/04/12 04:36:50;;;;;;;8.35;5.70;;;;;;;;;;5372800;26;19992;-85
2024/04/12 04:39:17;;;;;;;8.88;5.65;;;;;;;;;;5371237;26;20006;-85
2024/04/12 04:41:45;;;;;;;6.45;4.45;;;;;;;;;;5359703;26;20039;-85
2024/04/12 04:44:14;;;;;;;7.70;5.65;;;;;;;;;;5400383;26;19996;-86
2024/04/12 04:47:03;;;;;;;7.65;5.10;;;;;;;;;;5375860;26;20055;-85
2024/04/12 04:49:29;;;;;;;5.80;4.35;;;;;;;;;;5384553;26;22171;-85
2024/04/12 04:51:54;;;;;;;5.95;4.53;;;;;;;;;;5386890;26;20048;-86
2024/04/12 04:54:21;;;;;;;7.20;5.40;;;;;;;;;;5375913;26;19999;-86
2024/04/12 04:56:48;;;;;;;7.53;4.90;;;;;;;;;;5366229;26;20064;-86
2024/04/12 04:59:28;;;;;;;8.20;5.80;;;;;;;;;;5365407;26;20451;-86
2024/04/12 05:01:55;;;;;;;8.65;5.35;;;;;;;;;;5402456;26;20084;-87
2024/04/12 05:04:21;;;;;;;7.13;4.78;;;;;;;;;;5394680;26;20459;-85
2024/04/12 05:06:50;;;;;;;8.52;5.15;;;;;;;;;;5373818;26;20035;-87
2024/04/12 05:09:18;;;;;;;6.32;4.65;;;;;;;;;;5367543;26;20046;-82
2024/04/12 05:11:44;;;;;;;7.00;4.40;;;;;;;;;;5365139;26;20014;-82
2024/04/12 05:14:44;;;;;;;7.65;4.63;;;;;;;;;;5369753;26;20076;-81
2024/04/12 05:17:15;;;;;;;7.95;4.80;;;;;;;;;;5397523;26;20000;-82
2024/04/12 05:19:41;;;;;;;7.40;4.70;;;;;;;;;;5409161;26;19995;-81
2024/04/12 05:22:09;;;;;;;7.82;5.10;;;;;;;;;;5378335;26;20003;-81
2024/04/12 05:24:35;;;;;;;8.63;5.30;;;;;;;;;;5363446;26;20046;-82
2024/04/12 05:27:04;;;;;;;9.25;5.80;;;;;;;;;;5364829;26;20015;-81
2024/04/12 05:29:30;;;;;;;8.30;5.32;;;;;;;;;;5372661;26;20080;-81
2024/04/12 05:31:59;;;;;;;9.30;6.13;;;;;;;;;;5374539;26;19992;-81
2024/04/12 05:34:29;;;;;;;8.93;6.10;;;;;;;;;;5377918;26;20018;-80
2024/04/12 05:36:55;;;;;;;9.52;6.13;;;;;;;;;;5375081;26;20357;-81
2024/04/12 05:39:24;;;;;;;8.77;5.38;;;;;;;;;;5376530;26;20004;-81
2024/04/12 05:41:53;;;;;;;8.68;5.85;;;;;;;;;;5379219;26;20094;-82
2024/04/12 05:44:19;;;;;;;9.85;6.45;;;;;;;;;;5388135;26;20084;-82
2024/04/12 05:46:45;;;;;;;10.27;6.55;;;;;;;;;;5356737;26;20383;-82
2024/04/12 05:49:11;;;;;;;8.52;5.50;;;;;;;;;;5372366;26;20003;-82
2024/04/12 05:51:41;;;;;;;9.50;6.13;;;;;;;;;;5367493;26;20015;-82
2024/04/12 05:54:15;;;;;;;10.57;6.53;;;;;;;;;;5408274;26;20010;-83
2024/04/12 05:56:44;;;;;;;12.70;7.40;;;;;;;;;;5388715;26;20011;-82
2024/04/12 05:59:18;;;;;;;10.25;7.05;;;;;;;;;;5380264;26;20003;-82
2024/04/12 06:01:46;;;;;;;11.55;7.13;;;;;;;;;;5375505;26;20032;-82
2024/04/12 06:04:18;;;;;;;11.05;6.95;;;;;;;;;;5366196;26;20036;-82
2024/04/12 06:06:44;;;;;;;12.27;8.13;;;;;;;;;;5402732;26;20007;-82
2024/04/12 06:09:22;;;;;;;12.00;7.93;;;;;;;;;;5369175;26;20008;-82
2024/04/12 06:11:53;;;;;;;12.20;7.22;;;;;;;;;;5372727;26;20019;-82
2024/04/12 06:14:22;;;;;;;13.27;8.07;;;;;;;;;;5360588;26;20347;-83
2024/04/12 06:16:51;;;;;;;11.95;7.68;;;;;;;;;;5368765;26;20004;-82
2024/04/12 06:19:17;;;;;;;13.32;8.25;;;;;;;;;;5391486;26;20343;-83
2024/04/12 06:21:46;;;;;;;15.18;8.90;;;;;;;;;;5405376;26;20010;-83
2024/04/12 06:24:16;;;;;;;13.07;8.18;;;;;;;;;;5373003;26;19996;-82
2024/04/12 06:26:47;;;;;;;12.40;8.25;;;;;;;;;;5371920;26;20005;-82
2024/04/12 06:29:16;;;;;;;14.73;7.97;;;;;;;;;;5370934;26;20464;-81
2024/04/12 06:31:44;;;;;;;13.30;7.95;;;;;;;;;;5366789;26;20338;-82
2024/04/12 06:34:12;;;;;;;15.27;8.73;;;;;;;;;;5371399;26;20015;-82
2024/04/12 06:36:45;;;;;;;13.25;7.93;;;;;;;;;;5380939;26;20012;-83
2024/04/12 06:39:11;;;;;;;13.25;8.10;;;;;;;;;;5361805;26;20019;-82
2024/04/12 06:41:37;;;;;;;14.05;7.50;;;;;;;;;;5377057;26;20472;-80
2024/04/12 06:44:04;;;;;;;13.68;8.70;;;;;;;;;;5369687;26;20011;-80
2024/04/12 06:46:33;;;;;;;13.45;8.27;;;;;;;;;;5368870;26;20004;-81
2024/04/12 06:49:08;;;;;;;14.82;8.23;;;;;;;;;;5365876;26;20000;-83
2024/04/12 06:51:34;;;;;;;15.93;8.48;;;;;;;;;;5370102;26;20014;-83
2024/04/12 06:54:01;;;;;;;15.30;8.68;;;;;;;;;;5381978;26;20008;-84
2024/04/12 06:56:26;;;;;;;14.20;8.38;;;;;;;;;;5398749;26;20346;-83
2024/04/12 06:58:55;;;;;;;14.05;7.80;;;;;;;;;;5378444;26;20018;-83
2024/04/12 07:01:25;;;;;;;12.52;8.13;;;;;;;;;;5368644;26;20101;-83
2024/04/12 07:03:52;;;;;;;16.70;8.82;;;;;;;;;;5383415;26;20443;-86
2024/04/12 07:06:18;;;;;;;14.18;8.30;;;;;;;;;;5384229;26;20006;-87
2024/04/12 07:08:50;;;;;;;15.23;8.52;;;;;;;;;;5383267;26;20822;-86
2024/04/12 07:11:17;;;;;;;15.40;8.00;;;;;;;;;;5358758;26;20000;-86
2024/04/12 07:13:49;;;;;;;15.43;8.40;;;;;;;;;;5359887;26;20417;-85
2024/04/12 07:16:18;;;;;;;13.30;7.35;;;;;;;;;;5402295;26;20011;-86
2024/04/12 07:18:44;;;;;;;13.15;7.82;;;;;;;;;;5415555;26;20012;-86
2024/04/12 07:21:15;;;;;;;16.58;8.35;;;;;;;;;;5385230;26;20376;-85
2024/04/12 07:23:48;;;;;;;14.70;8.77;;;;;;;;;;5403736;26;20032;-86
2024/04/12 07:26:37;;;;;;;18.35;9.05;;;;;;;;;;5369247;26;20039;-85
2024/04/12 07:29:01;;;;;;;15.48;8.10;;;;;;;;;;5408464;26;20354;-86
2024/04/12 07:31:34;;;;;;;16.33;9.40;;;;;;;;;;5380966;26;20018;-86
2024/04/12 07:34:01;;;;;;;14.77;7.75;;;;;;;;;;5403351;26;20008;-85
2024/04/12 07:36:31;;;;;;;14.85;7.93;;;;;;;;;;5373940;26;19996;-86
2024/04/12 07:39:04;;;;;;;17.77;7.78;;;;;;;;;;5371071;26;20072;-84
2024/04/12 07:41:32;;;;;;;;;;;;;;;;;;5407189;26;20000;-86
2024/04/12 07:43:59;;;;;;;14.82;8.32;;;;;;;;;;5382449;26;19994;-86
2024/04/12 07:46:33;;;;;;;15.20;8.32;;;;;;;;;;5376319;26;20012;-86
2024/04/12 07:49:03;;;;;;;15.10;7.78;;;;;;;;;;5381022;26;20006;-85
2024/04/12 07:51:31;;;;;;;11.90;7.75;;;;;;;;;;5370367;26;19999;-86
2024/04/12 07:54:03;;;;;;;16.13;8.98;;;;;;;;;;5395866;26;20081;-86
2024/04/12 07:56:37;;;;;;;17.85;8.82;;;;;;;;;;5397797;26;19996;-82
2024/04/12 07:59:25;;;;;;;16.30;8.13;;;;;;;;;;5386809;26;20459;-83
2024/04/12 08:01:57;;;;;;;16.02;8.48;;;;;;;;;;5371188;26;20011;-82
2024/04/12 08:04:36;;;;;;;12.65;8.18;;;;;;;;;;5378618;26;19996;-82
2024/04/12 08:07:06;;;;;;;15.32;8.93;;;;;;;;;;5385839;26;20018;-82
2024/04/12 08:09:40;;;;;;;15.75;8.85;;;;;;;;;;5368159;26;19999;-82
2024/04/12 08:12:17;;;;;;;12.90;7.80;;;;;;;;;;5393905;26;20032;-82
2024/04/12 08:14:54;;;;;;;13.27;7.70;;;;;;;;;;5373540;26;19995;-83
2024/04/12 08:17:23;;;;;;;17.40;8.00;;;;;;;;;;5393683;26;20018;-83
2024/04/12 08:19:57;;;;;;;12.27;7.30;;;;;;;;;;5367572;26;20011;-82
2024/04/12 08:22:25;;;;;;;13.38;7.22;;;;;;;;;;5395877;26;20010;-82
2024/04/12 08:24:51;;;;;;;13.80;7.32;;;;;;;;;;5372800;26;20541;-82
2024/04/12 08:27:19;;;;;;;13.30;7.05;;;;;;;;;;5376079;26;20467;-82
2024/04/12 08:29:48;;;;;;;12.82;7.30;;;;;;;;;;5383496;26;20415;-82
2024/04/12 08:32:14;;;;;;;13.30;7.10;;;;;;;;;;5412993;26;20454;-83
2024/04/12 08:34:49;;;;;;;17.08;7.18;;;;;;;;;;5372479;26;20018;-80
2024/04/12 08:37:19;;;;;;;14.15;7.25;;;;;;;;;;5380543;26;20011;-82
2024/04/12 08:39:52;;;;;;;13.38;6.85;;;;;;;;;;5371911;26;20004;-82
2024/04/12 08:42:28;;;;;;;14.20;7.30;;;;;;;;;;5377853;26;20007;-82
2024/04/12 08:44:58;;;;;;;13.57;7.00;;;;;;;;;;5366025;26;20331;-82
2024/04/12 08:50:02;;;;;;;12.60;7.28;;;;;;;;;;5411599;26;20037;-82
2024/04/12 08:52:33;;;;;;;11.90;6.85;;;;;;;;;;5377031;26;20081;-82
2024/04/12 08:54:59;;;;;;;14.10;7.38;;;;;;;;;;5381676;26;20012;-82
2024/04/12 08:57:26;;;;;;;13.85;7.03;;;;;;;;;;5380727;26;19999;-83
2024/04/12 08:59:58;;;;;;;13.02;7.22;;;;;;;;;;5404658;26;20026;-82
2024/04/12 09:02:40;;;;;;;11.65;6.75;;;;;;;;;;5370946;26;20068;-83
2024/04/12 09:05:06;;;;;;;11.82;6.55;;;;;;;;;;5368373;26;20069;-82
2024/04/12 09:07:35;;;;;;;12.13;7.03;;;;;;;;;;5370225;26;20335;-82
2024/04/12 09:10:01;;;;;;;14.35;7.82;;;;;;;;;;5363404;26;20015;-82
2024/04/12 09:12:27;;;;;;;15.52;6.88;;;;;;;;;;5371658;26;20050;-82
2024/04/12 09:14:59;;;;;;;12.85;7.53;;;;;;;;;;5360558;26;20004;-83
2024/04/12 09:17:28;;;;;;;13.05;7.15;;;;;;;;;;5375737;26;20367;-82
2024/04/12 09:19:57;;;;;;;13.60;6.90;;;;;;;;;;5375446;26;20072;-82
2024/04/12 09:22:27;;;;;;;14.27;7.72;;;;;;;;;;5379017;26;20004;-83
2024/04/12 09:24:56;;;;;;;14.77;7.22;;;;;;;;;;5370284;26;20474;-83
2024/04/12 09:27:24;;;;;;;11.48;6.80;;;;;;;;;;5373366;26;19996;-83
2024/04/12 09:29:55;;;;;;;12.40;7.00;;;;;;;;;;5383802;26;20805;-83
2024/04/12 09:35:12;;;;;;;12.35;7.32;;;;;;;;;;5385850;26;20058;-83
2024/04/12 09:37:44;;;;;;;14.48;7.47;;;;;;;;;;5399095;26;20015;-83
2024/04/12 09:45:27;;;;;;;14.13;8.02;;;;;;;;;;5397286;26;20000;-83
2024/04/12 10:38:02;;;;;;;14.50;7.78;;;;;;;;;;5395482;26;20011;-86
2024/04/12 10:40:33;;;;;;;13.00;7.80;;;;;;;;;;5388808;26;20003;-85
2024/04/12 10:42:59;;;;;;;14.98;7.80;;;;;;;;;;5400043;26;20007;-85
2024/04/12 10:45:29;;;;;;;11.52;7.15;;;;;;;;;;5382405;26;20114;-85
2024/04/12 10:47:55;;;;;;;11.07;6.63;;;;;;;;;;5393281;26;20354;-85
2024/04/12 10:50:23;;;;;;;11.00;6.82;;;;;;;;;;5379143;26;20028;-85
2024/04/12 10:52:49;;;;;;;13.60;6.97;;;;;;;;;;5376363;26;22432;-84
2024/04/12 10:55:19;;;;;;;10.75;6.75;;;;;;;;;;5402167;26;20015;-85
2024/04/12 10:57:49;;;;;;;10.88;6.30;;;;;;;;;;5408787;26;20007;-84
2024/04/12 11:00:28;;;;;;;10.68;6.15;;;;;;;;;;5380129;26;19999;-86
2024/04/12 11:02:59;;;;;;;10.77;6.47;;;;;;;;;;5382609;26;20502;-84
2024/04/12 11:05:38;;;;;;;10.45;6.32;;;;;;;;;;5375864;26;20000;-85
2024/04/12 11:08:07;;;;;;;11.88;6.57;;;;;;;;;;5368902;26;20012;-84
2024/04/12 11:10:39;;;;;;;13.52;7.20;;;;;;;;;;5393938;26;20490;-85
2024/04/12 11:13:07;;;;;;;11.80;6.55;;;;;;;;;;5375940;26;19996;-84
2024/04/12 11:32:23;;;;;;;13.50;6.90;;;;;;;;;;5397506;26;20014;-84
2024/04/12 11:34:51;;;;;;;14.27;6.95;;;;;;;;;;5381140;26;20028;-84
2024/04/12 11:37:16;;;;;;;14.85;7.60;;;;;;;;;;5382059;26;20004;-84
2024/04/12 11:39:42;;;;;;;11.55;7.13;;;;;;;;;;5382473;26;20014;-84
2024/04/12 11:42:15;;;;;;;12.65;6.38;;;;;;;;;;5402813;26;20000;-84
2024/04/12 11:44:44;;;;;;;10.98;5.65;;;;;;;;;;5412243;26;20347;-84
2024/04/12 11:47:10;;;;;;;13.40;6.10;;;;;;;;;;5398252;26;20003;-83
2024/04/12 11:49:41;;;;;;;11.95;5.47;;;;;;;;;;5378651;26;20004;-83
2024/04/12 11:52:15;;;;;;;10.70;5.20;;;;;;;;;;5378444;26;20447;-83
2024/04/12 11:54:51;;;;;;;9.55;5.20;;;;;;;;;;5399945;26;20439;-84
2024/04/12 11:57:19;;;;;;;7.85;4.65;;;;;;;;;;5402260;26;19999;-84
2024/04/12 11:59:46;;;;;;;8.05;4.47;;;;;;;;;;5368184;26;20000;-83
2024/04/12 12:02:14;;;;;;;11.68;4.82;;;;;;;;;;5372687;26;20049;-83
2024/04/12 12:04:41;;;;;;;11.52;4.60;;;;;;;;;;5406776;26;20007;-83
2024/04/12 12:07:10;;;;;;;8.07;4.60;;;;;;;;;;5379701;26;20000;-83
2024/04/12 12:09:38;;;;;;;10.55;4.68;;;;;;;;;;5390582;26;20346;-83
2024/04/12 12:12:10;;;;;;;8.75;4.50;;;;;;;;;;5401859;26;20372;-83
2024/04/12 12:14:43;;;;;;;10.47;5.43;;;;;;;;;;5381730;26;20250;-83
2024/04/12 12:17:10;;;;;;;8.73;4.90;;;;;;;;;;5378675;26;20379;-83
2024/04/12 12:19:35;;;;;;;8.75;4.68;;;;;;;;;;5408152;26;20006;-83
2024/04/12 12:22:02;;;;;;;11.35;5.18;;;;;;;;;;5406988;26;19999;-83
2024/04/12 12:24:27;;;;;;;11.13;5.30;;;;;;;;;;5386171;26;20003;-83
2024/04/12 12:26:53;;;;;;;11.75;5.65;;;;;;;;;;5405498;26;19999;-83
2024/04/12 12:29:20;;;;;;;11.80;4.57;;;;;;;;;;5370644;26;20069;-83
2024/04/12 12:31:47;;;;;;;10.35;5.30;;;;;;;;;;5382202;26;20008;-83
2024/04/12 12:34:14;;;;;;;10.63;4.88;;;;;;;;;;5408905;26;19999;-83
2024/04/12 12:36:40;;;;;;;8.20;4.25;;;;;;;;;;5404229;26;20015;-84
2024/04/12 12:39:05;;;;;;;9.40;4.53;;;;;;;;;;5371568;26;20105;-83
2024/04/12 12:41:31;;;;;;;10.20;4.60;;;;;;;;;;5379060;26;20044;-83
2024/04/12 12:43:57;;;;;;;9.55;5.10;;;;;;;;;;5396979;26;19995;-83
2024/04/12 12:46:26;;;;;;;9.07;4.15;;;;;;;;;;5365504;26;20007;-84
2024/04/12 12:48:55;;;;;;;6.88;3.85;;;;;;;;;;5383910;26;19995;-84
2024/04/12 12:51:26;;;;;;;8.35;4.57;;;;;;;;;;5418778;26;20010;-84
2024/04/12 12:53:53;;;;;;;8.15;4.22;;;;;;;;;;5373957;26;20458;-83
2024/04/12 12:56:20;;;;;;;9.10;4.13;;;;;;;;;;5385765;26;20454;-83
2024/04/12 12:58:47;;;;;;;10.60;4.07;;;;;;;;;;5409483;26;20475;-83
2024/04/12 13:01:15;;;;;;;9.90;3.80;;;;;;;;;;5385818;26;20035;-83
2024/04/12 13:03:43;;;;;;;7.82;3.90;;;;;;;;;;5383305;26;20006;-83
2024/04/12 13:06:10;;;;;;;8.60;3.78;;;;;;;;;;5387607;26;20450;-83
2024/04/12 13:08:36;;;;;;;14.07;3.80;;;;;;;;;;5409492;26;20101;-83
2024/04/12 13:11:08;;;;;;;7.30;3.30;;;;;;;;;;5370224;26;20053;-83
2024/04/12 13:13:39;;;;;;;8.20;3.20;;;;;;;;;;5376702;26;20080;-83
2024/04/12 13:16:11;;;;;;;8.48;3.55;;;;;;;;;;5399196;26;20411;-83
2024/04/12 13:18:43;;;;;;;6.05;3.10;;;;;;;;;;5413302;26;20042;-83
2024/04/12 13:21:12;;;;;;;7.05;3.40;;;;;;;;;;5383033;26;20011;-83
2024/04/12 13:23:42;;;;;;;8.25;3.47;;;;;;;;;;5401492;26;19999;-83
2024/04/12 13:26:08;;;;;;;6.65;3.33;;;;;;;;;;5406857;26;20473;-83
2024/04/12 13:28:34;;;;;;;8.68;3.90;;;;;;;;;;5377130;26;20462;-83
2024/04/12 13:31:00;;;;;;;6.10;3.45;;;;;;;;;;5364848;26;20463;-84
2024/04/12 13:33:26;;;;;;;7.50;3.58;;;;;;;;;;5366533;26;20007;-83
2024/04/12 13:35:52;;;;;;;9.35;3.53;;;;;;;;;;5377423;26;19996;-84
2024/04/12 13:38:18;;;;;;;6.10;3.55;;;;;;;;;;5407981;26;20011;-83
2024/04/12 13:40:50;;;;;;;9.02;3.50;;;;;;;;;;5363987;26;20094;-83
2024/04/12 13:43:16;;;;;;;6.97;3.38;;;;;;;;;;5382889;26;19999;-84
2024/04/12 13:51:20;;;;;;;8.40;3.17;;;;;;;;;;5398153;26;20006;-83
2024/04/12 13:53:50;;;;;;;5.20;3.13;;;;;;;;;;5376129;26;20022;-84
2024/04/12 13:59:00;;;;;;;6.80;3.13;;;;;;;;;;5412436;26;20482;-83
2024/04/12 14:01:30;;;;;;;5.57;2.80;;;;;;;;;;5381633;26;20000;-83
2024/04/12 14:04:02;;;;;;;6.78;2.67;;;;;;;;;;5378041;26;20018;-84
2024/04/12 14:06:34;;;;;;;6.60;2.78;;;;;;;;;;5404433;26;20035;-84
2024/04/12 14:09:21;;;;;;;7.32;3.08;;;;;;;;;;5381565;26;20015;-85
2024/04/12 14:11:47;;;;;;;4.93;2.75;;;;;;;;;;5368365;26;20017;-83
2024/04/12 14:14:12;;;;;;;5.50;2.58;;;;;;;;;;5388997;26;20011;-83
2024/04/12 14:16:42;;;;;;;7.30;3.55;;;;;;;;;;5381943;26;20000;-84
2024/04/12 14:19:17;;;;;;;5.70;2.90;;;;;;;;;;5404167;26;20003;-83
2024/04/12 14:21:52;;;;;;;6.18;3.10;;;;;;;;;;5426343;26;20039;-84
2024/04/12 14:27:05;;;;;;;5.90;3.22;;;;;;;;;;5409819;26;20018;-84
2024/04/12 14:29:31;;;;;;;6.90;3.40;;;;;;;;;;5375307;26;19992;-84
2024/04/12 14:31:57;;;;;;;9.60;2.90;;;;;;;;;;5375711;26;19999;-83
2024/04/12 14:34:29;;;;;;;6.30;2.60;;;;;;;;;;5379803;26;20035;-83
2024/04/12 14:36:56;;;;;;;5.00;2.20;;;;;;;;;;5392614;26;20003;-83
2024/04/12 14:39:28;;;;;;;5.28;1.67;;;;;;;;;;5379426;26;20018;-83
2024/04/12 14:41:57;;;;;;;4.10;1.40;;;;;;;;;;5380219;26;20008;-84
2024/04/12 14:44:23;;;;;;;3.30;1.38;;;;;;;;;;5371692;26;20344;-84
2024/04/12 14:46:48;;;;;;;3.97;1.52;;;;;;;;;;5382377;26;20003;-83
2024/04/12 14:49:14;;;;;;;4.97;1.58;;;;;;;;;;5381198;26;19995;-82
2024/04/12 14:51:42;;;;;;;3.83;1.77;;;;;;;;;;5419192;26;20004;-83
2024/04/12 14:54:10;;;;;;;3.67;1.58;;;;;;;;;;5379705;26;20014;-83
2024/04/12 14:56:39;;;;;;;3.05;1.67;;;;;;;;;;5424037;26;20003;-83
2024/04/12 14:59:11;;;;;;;4.30;1.88;;;;;;;;;;5383711;26;20022;-83
2024/04/12 15:01:37;;;;;;;7.10;2.10;;;;;;;;;;5377299;26;20004;-83
2024/04/12 15:48:13;;;;;;;3.60;1.95;;;;;;;;;;5408668;26;20011;-83
2024/04/12 15:50:49;;;;;;;3.75;1.55;;;;;;;;;;5394304;26;20037;-82
2024/04/12 15:53:18;;;;;;;3.53;1.50;;;;;;;;;;5394950;26;20019;-82
2024/04/12 16:12:17;;;;;;;2.90;1.30;;;;;;;;;;5391480;26;20015;-82
2024/04/12 16:14:42;;;;;;;2.85;1.33;;;;;;;;;;5356952;26;20330;-82
2024/04/12 16:17:10;;;;;;;2.95;1.60;;;;;;;;;;5392332;26;20023;-82
2024/04/12 16:19:38;;;;;;;4.45;1.58;;;;;;;;;;5361330;26;20004;-82
2024/04/12 16:22:04;;;;;;;2.50;1.40;;;;;;;;;;5403201;26;20027;-81
2024/04/12 16:24:30;;;;;;;4.18;1.60;;;;;;;;;;5365675;26;20382;-83
2024/04/12 16:26:55;;;;;;;2.78;1.20;;;;;;;;;;5399697;26;20153;-82
2024/04/12 16:29:20;;;;;;;3.95;1.40;;;;;;;;;;5410043;26;20072;-82
2024/04/12 16:31:46;;;;;;;5.00;1.40;;;;;;;;;;5398989;26;20038;-82
2024/04/12 16:34:13;;;;;;;2.53;1.30;;;;;;;;;;5371883;26;20008;-82
2024/04/12 16:36:40;;;;;;;3.95;1.20;;;;;;;;;;5362395;26;20015;-82
2024/04/12 16:39:06;;;;;;;3.28;1.20;;;;;;;;;;5394545;26;20011;-82
2024/04/12 16:41:32;;;;;;;3.53;1.63;;;;;;;;;;5398042;26;19999;-82
2024/04/12 16:44:01;;;;;;;3.35;1.60;;;;;;;;;;5395941;26;20391;-82
2024/04/12 16:46:27;;;;;;;3.03;1.60;;;;;;;;;;5383553;26;20008;-83
2024/04/12 16:48:54;;;;;;;3.05;1.38;;;;;;;;;;5363006;26;20078;-82
2024/04/12 16:51:20;;;;;;;2.63;1.35;;;;;;;;;;5375400;26;19999;-82
2024/04/12 16:53:45;;;;;;;4.70;1.25;;;;;;;;;;5398941;26;20003;-82
2024/04/12 16:56:11;;;;;;;2.85;1.35;;;;;;;;;;5384086;26;20009;-82
2024/04/12 16:58:37;;;;;;;4.82;1.33;;;;;;;;;;5375697;26;20019;-82
2024/04/12 17:01:06;;;;;;;3.13;1.30;;;;;;;;;;5412210;26;20010;-83
2024/04/12 17:03:34;;;;;;;3.90;1.50;;;;;;;;;;5359898;26;20019;-83
2024/04/12 17:06:02;;;;;;;2.95;1.40;;;;;;;;;;5395795;26;20004;-83
2024/04/12 17:08:27;;;;;;;3.20;1.48;;;;;;;;;;5369254;26;20004;-83
2024/04/12 17:10:53;;;;;;;3.53;1.40;;;;;;;;;;5385702;26;20022;-83
2024/04/12 17:13:22;;;;;;;3.15;1.60;;;;;;;;;;5401900;26;20008;-83
2024/04/12 17:15:47;;;;;;;3.78;1.75;;;;;;;;;;5383831;26;20004;-83